| time (UTC) | temp F | wind direction | speed MPH | gust MPH | rain 1hr in | rain 24hr in | rain mn in | humidity % | barometer mb |
| 20260508073212 | 50 | 93 | 2.0 | 6.0 | 0.00 | 0.00 | 0.00 | 93 | 1016.9 |
| 20260508072212 | 50 | 28 | 4.0 | 7.0 | 0.00 | 0.00 | 0.00 | 93 | 1017.0 |
| 20260508070212 | 50 | 63 | 3.0 | 6.0 | 0.00 | 0.00 | 0.00 | 93 | 1016.9 |
| 20260508065212 | 50 | 5 | 2.0 | 4.0 | 0.00 | 0.00 | 0.00 | 93 | 1017.0 |
| 20260508064212 | 49 | 36 | 3.0 | 6.0 | 0.00 | 0.00 | 0.00 | 93 | 1016.9 |
| 20260508063212 | 49 | 57 | 2.0 | 7.0 | 0.00 | 0.00 | 0.00 | 93 | 1016.9 |
| 20260508062213 | 49 | 15 | 1.0 | 6.0 | 0.00 | 0.00 | 0.00 | 93 | 1016.8 |
| 20260508061212 | 49 | 338 | 3.0 | 6.0 | 0.00 | 0.00 | 0.00 | 93 | 1016.8 |
| 20260508060211 | 49 | 70 | 3.0 | 6.0 | 0.00 | 0.00 | 0.00 | 93 | 1016.7 |
| 20260508055211 | 49 | 55 | 4.0 | 6.0 | 0.00 | 0.00 | 0.00 | 93 | 1016.6 |
| 20260508053211 | 48 | 31 | 0.0 | 3.0 | 0.00 | 0.00 | 0.00 | 93 | 1016.5 |
| 20260508052211 | 47 | 28 | 0.0 | 3.0 | 0.00 | 0.00 | 0.00 | 93 | 1016.6 |
| 20260508051211 | 47 | 59 | 0.0 | 3.0 | 0.00 | 0.00 | 0.00 | 92 | 1016.5 |
| 20260508050211 | 46 | 44 | 0.0 | 0.0 | 0.00 | 0.00 | 0.00 | 92 | 1016.5 |
| 20260508045212 | 46 | 350 | 1.0 | 3.0 | 0.00 | 0.00 | 0.00 | 92 | 1016.5 |
| 20260508044211 | 46 | 57 | 0.0 | 0.0 | 0.00 | 0.00 | 0.00 | 92 | 1016.4 |
| 20260508043211 | 46 | 44 | 0.0 | 0.0 | 0.00 | 0.00 | 0.00 | 92 | 1016.3 |
| 20260508042211 | 46 | 30 | 2.0 | 4.0 | 0.00 | 0.00 | 0.00 | 92 | 1016.3 |
| 20260508041211 | 46 | 41 | 2.0 | 3.0 | 0.00 | 0.00 | 0.00 | 92 | 1016.4 |
| 20260508040211 | 47 | 20 | 3.0 | 4.0 | 0.00 | 0.00 | 0.00 | 91 | 1016.2 |
| 20260508035211 | 47 | 55 | 2.0 | 4.0 | 0.00 | 0.01 | 0.00 | 91 | 1016.2 |
| 20260508034210 | 47 | 34 | 0.0 | 0.0 | 0.00 | 0.01 | 0.00 | 91 | 1016.2 |
| 20260508033211 | 47 | 66 | 0.0 | 3.0 | 0.00 | 0.01 | 0.00 | 91 | 1016.1 |
| 20260508032211 | 47 | 37 | 0.0 | 0.0 | 0.00 | 0.01 | 0.00 | 91 | 1016.1 |
| 20260508031210 | 47 | 55 | 0.0 | 4.0 | 0.00 | 0.01 | 0.00 | 91 | 1015.9 |
| 20260508030211 | 47 | 19 | 1.0 | 5.0 | 0.00 | 0.01 | 0.00 | 91 | 1016.0 |
| 20260508025211 | 47 | 35 | 3.0 | 5.0 | 0.00 | 0.01 | 0.00 | 91 | 1015.9 |
| 20260508024210 | 47 | 41 | 2.0 | 5.0 | 0.00 | 0.01 | 0.00 | 91 | 1016.0 |
| 20260508023211 | 47 | 32 | 1.0 | 4.0 | 0.00 | 0.01 | 0.00 | 90 | 1016.0 |
| 20260508022210 | 47 | 49 | 0.0 | 0.0 | 0.00 | 0.01 | 0.00 | 90 | 1016.0 |
| 20260508021210 | 47 | 42 | 0.0 | 2.0 | 0.00 | 0.01 | 0.00 | 90 | 1015.9 |
| 20260508020211 | 47 | 19 | 0.0 | 0.0 | 0.00 | 0.01 | 0.00 | 90 | 1015.8 |
| 20260508015211 | 47 | 17 | 0.0 | 0.0 | 0.00 | 0.02 | 0.00 | 90 | 1015.8 |
| 20260508014211 | 47 | 57 | 0.0 | 0.0 | 0.00 | 0.02 | 0.00 | 90 | 1015.9 |
| 20260508013211 | 47 | 61 | 0.0 | 0.0 | 0.00 | 0.02 | 0.00 | 90 | 1015.8 |
| 20260508012211 | 47 | 30 | 0.0 | 3.0 | 0.00 | 0.02 | 0.00 | 90 | 1015.7 |
| 20260508011211 | 47 | 49 | 0.0 | 2.0 | 0.00 | 0.02 | 0.00 | 89 | 1015.7 |
| 20260508010211 | 47 | 74 | 0.0 | 0.0 | 0.00 | 0.02 | 0.00 | 89 | 1015.7 |
| 20260508005211 | 47 | 33 | 0.0 | 0.0 | 0.00 | 0.03 | 0.00 | 89 | 1015.7 |
| 20260508004212 | 47 | 33 | 0.0 | 0.0 | 0.00 | 0.03 | 0.00 | 89 | 1015.9 |
| 20260508003211 | 47 | 34 | 0.0 | 0.0 | 0.00 | 0.03 | 0.00 | 88 | 1015.8 |
| 20260508002210 | 47 | 30 | 0.0 | 0.0 | 0.00 | 0.03 | 0.00 | 88 | 1015.8 |
| 20260508001211 | 48 | 29 | 0.0 | 0.0 | 0.00 | 0.03 | 0.00 | 88 | 1015.8 |
| 20260508000212 | 48 | 34 | 0.0 | 0.0 | 0.00 | 0.03 | 0.00 | 88 | 1015.8 |
| 20260507235210 | 48 | 67 | 0.0 | 0.0 | 0.00 | 0.04 | 0.00 | 88 | 1015.9 |
| 20260507234210 | 48 | 67 | 0.0 | 0.0 | 0.00 | 0.04 | 0.00 | 88 | 1015.9 |
| 20260507233210 | 49 | 67 | 0.0 | 0.0 | 0.00 | 0.04 | 0.00 | 88 | 1016.1 |
| 20260507232210 | 49 | 31 | 0.0 | 0.0 | 0.00 | 0.04 | 0.00 | 88 | 1016.2 |
| 20260507231211 | 49 | 355 | 0.0 | 0.0 | 0.00 | 0.04 | 0.00 | 88 | 1016.3 |
| 20260507230210 | 50 | 355 | 0.0 | 0.0 | 0.00 | 0.04 | 0.00 | 88 | 1016.2 |
| 20260507225210 | 50 | 333 | 0.0 | 4.0 | 0.00 | 0.04 | 0.00 | 88 | 1016.2 |
| 20260507224210 | 50 | 348 | 2.0 | 4.0 | 0.00 | 0.04 | 0.00 | 88 | 1016.2 |
| 20260507223211 | 50 | 342 | 2.0 | 4.0 | 0.00 | 0.04 | 0.00 | 87 | 1016.3 |
| 20260507222215 | 50 | 355 | 2.0 | 4.0 | 0.00 | 0.04 | 0.00 | 87 | 1016.4 |
| 20260507221215 | 50 | 345 | 3.0 | 4.0 | 0.00 | 0.04 | 0.00 | 87 | 1016.5 |
| 20260507220215 | 51 | 349 | 2.0 | 3.0 | 0.00 | 0.04 | 0.00 | 86 | 1016.4 |
| 20260507215215 | 51 | 336 | 0.0 | 3.0 | 0.00 | 0.06 | 0.06 | 86 | 1016.4 |
| 20260507214215 | 51 | 343 | 2.0 | 4.0 | 0.00 | 0.06 | 0.06 | 86 | 1016.4 |
| 20260507213215 | 51 | 347 | 3.0 | 4.0 | 0.00 | 0.06 | 0.06 | 86 | 1016.3 |
| 20260507212215 | 51 | 342 | 1.0 | 4.0 | 0.00 | 0.06 | 0.06 | 85 | 1016.3 |
| 20260507211215 | 52 | 317 | 1.0 | 4.0 | 0.00 | 0.06 | 0.06 | 85 | 1016.3 |
| 20260507210215 | 52 | 319 | 0.0 | 2.0 | 0.00 | 0.06 | 0.06 | 85 | 1016.3 |
| 20260507205215 | 52 | 340 | 2.0 | 4.0 | 0.00 | 0.06 | 0.06 | 84 | 1016.4 |
| 20260507204215 | 52 | 338 | 3.0 | 5.0 | 0.00 | 0.06 | 0.06 | 84 | 1016.3 |
| 20260507203215 | 53 | 343 | 1.0 | 3.0 | 0.00 | 0.06 | 0.06 | 83 | 1016.3 |
| 20260507202215 | 53 | 349 | 2.0 | 3.0 | 0.00 | 0.06 | 0.06 | 84 | 1016.2 |
| 20260507201215 | 53 | 336 | 2.0 | 4.0 | 0.00 | 0.06 | 0.06 | 83 | 1016.1 |
| 20260507200215 | 54 | 5 | 0.0 | 0.0 | 0.00 | 0.06 | 0.06 | 83 | 1016.0 |
| 20260507195215 | 54 | 344 | 2.0 | 5.0 | 0.00 | 0.07 | 0.06 | 83 | 1015.9 |
| 20260507194214 | 54 | 355 | 1.0 | 4.0 | 0.00 | 0.07 | 0.06 | 83 | 1015.7 |
| 20260507193215 | 55 | 11 | 1.0 | 4.0 | 0.00 | 0.07 | 0.06 | 82 | 1015.7 |
| 20260507192214 | 55 | 11 | 1.0 | 3.0 | 0.00 | 0.07 | 0.06 | 82 | 1015.6 |
| 20260507191214 | 56 | 5 | 2.0 | 4.0 | 0.00 | 0.07 | 0.06 | 81 | 1015.5 |
| 20260507190214 | 56 | 15 | 0.0 | 2.0 | 0.00 | 0.07 | 0.06 | 81 | 1015.5 |
| 20260507185214 | 56 | 45 | 2.0 | 5.0 | 0.00 | 0.09 | 0.06 | 80 | 1015.5 |
| 20260507184214 | 57 | 19 | 3.0 | 5.0 | 0.00 | 0.09 | 0.06 | 80 | 1015.4 |
| 20260507183214 | 57 | 42 | 2.0 | 5.0 | 0.00 | 0.09 | 0.06 | 79 | 1015.3 |
| 20260507182214 | 58 | 26 | 1.0 | 4.0 | 0.00 | 0.09 | 0.06 | 78 | 1015.3 |
| 20260507181214 | 58 | 62 | 3.0 | 5.0 | 0.00 | 0.09 | 0.06 | 77 | 1015.2 |
| 20260507180214 | 58 | 36 | 2.0 | 7.0 | 0.00 | 0.09 | 0.06 | 76 | 1015.1 |
| 20260507175214 | 58 | 350 | 2.0 | 9.0 | 0.00 | 0.11 | 0.06 | 76 | 1015.1 |
| 20260507174214 | 59 | 36 | 4.0 | 8.0 | 0.00 | 0.11 | 0.06 | 74 | 1015.0 |
| 20260507173214 | 59 | 32 | 4.0 | 9.0 | 0.00 | 0.11 | 0.06 | 73 | 1015.1 |
| 20260507172214 | 59 | 335 | 4.0 | 8.0 | 0.00 | 0.11 | 0.06 | 72 | 1015.2 |
| 20260507171215 | 59 | 81 | 4.0 | 11.0 | 0.00 | 0.11 | 0.06 | 72 | 1015.1 |
| 20260507170214 | 59 | 33 | 5.0 | 10.0 | 0.00 | 0.11 | 0.06 | 72 | 1014.9 |
| 20260507165213 | 60 | 340 | 6.0 | 11.0 | 0.00 | 0.14 | 0.06 | 72 | 1014.8 |
| 20260507164214 | 60 | 36 | 4.0 | 12.0 | 0.00 | 0.14 | 0.06 | 72 | 1014.9 |
| 20260507163213 | 60 | 32 | 3.0 | 10.0 | 0.00 | 0.14 | 0.06 | 73 | 1015.0 |
| 20260507162213 | 60 | 27 | 3.0 | 11.0 | 0.00 | 0.14 | 0.06 | 71 | 1015.0 |
| 20260507161213 | 60 | 59 | 4.0 | 9.0 | 0.00 | 0.14 | 0.06 | 70 | 1015.0 |
| 20260507160214 | 60 | 85 | 3.0 | 8.0 | 0.00 | 0.14 | 0.06 | 70 | 1015.0 |
| 20260507155213 | 60 | 77 | 4.0 | 10.0 | 0.00 | 0.17 | 0.06 | 69 | 1015.0 |
| 20260507154214 | 61 | 79 | 6.0 | 10.0 | 0.00 | 0.17 | 0.06 | 68 | 1015.0 |
| 20260507153431 | 61 | 355 | 3.0 | 11.0 | 0.00 | 0.17 | 0.06 | 67 | 1014.9 |
| 20260507153213 | 61 | 355 | 3.0 | 11.0 | 0.00 | 0.17 | 0.06 | 67 | 1014.9 |
| 20260507152214 | 61 | 44 | 6.0 | 11.0 | 0.00 | 0.17 | 0.06 | 67 | 1015.0 |
| 20260507151213 | 61 | 74 | 4.0 | 9.0 | 0.00 | 0.17 | 0.06 | 67 | 1014.9 |
| 20260507150213 | 61 | 82 | 5.0 | 9.0 | 0.00 | 0.17 | 0.06 | 68 | 1015.0 |
| 20260507145215 | 61 | 60 | 5.0 | 10.0 | 0.00 | 0.18 | 0.06 | 69 | 1014.9 |
| 20260507144215 | 61 | 67 | 3.0 | 9.0 | 0.00 | 0.18 | 0.06 | 69 | 1014.9 |
| 20260507143214 | 61 | 26 | 5.0 | 9.0 | 0.00 | 0.18 | 0.06 | 69 | 1015.0 |
| 20260507142214 | 61 | 77 | 3.0 | 7.0 | 0.00 | 0.18 | 0.06 | 72 | 1015.1 |
| 20260507141214 | 60 | 63 | 3.0 | 8.0 | 0.00 | 0.18 | 0.06 | 71 | 1015.1 |
| 20260507140214 | 60 | 17 | 3.0 | 7.0 | 0.00 | 0.18 | 0.06 | 72 | 1015.1 |
| 20260507135214 | 61 | 98 | 3.0 | 9.0 | 0.00 | 0.18 | 0.06 | 73 | 1015.2 |
| 20260507134214 | 60 | 32 | 3.0 | 9.0 | 0.00 | 0.18 | 0.06 | 73 | 1015.3 |
| 20260507133214 | 60 | 9 | 4.0 | 9.0 | 0.00 | 0.18 | 0.06 | 74 | 1015.4 |
| 20260507132213 | 60 | 21 | 1.0 | 7.0 | 0.00 | 0.18 | 0.06 | 74 | 1015.4 |
| 20260507131214 | 60 | 28 | 2.0 | 5.0 | 0.00 | 0.18 | 0.06 | 76 | 1015.3 |
| 20260507130214 | 60 | 19 | 4.0 | 8.0 | 0.00 | 0.18 | 0.06 | 77 | 1015.3 |
| 20260507125213 | 60 | 68 | 4.0 | 10.0 | 0.00 | 0.18 | 0.06 | 78 | 1015.4 |
| 20260507124213 | 59 | 51 | 4.0 | 10.0 | 0.00 | 0.18 | 0.06 | 79 | 1015.4 |
| 20260507123214 | 59 | 34 | 3.0 | 9.0 | 0.00 | 0.18 | 0.06 | 79 | 1015.4 |
| 20260507122213 | 58 | 22 | 4.0 | 11.0 | 0.00 | 0.18 | 0.06 | 81 | 1015.4 |
| 20260507121214 | 57 | 46 | 4.0 | 9.0 | 0.00 | 0.18 | 0.06 | 82 | 1015.3 |
| 20260507120215 | 57 | 350 | 5.0 | 9.0 | 0.00 | 0.18 | 0.06 | 84 | 1015.3 |
| 20260507115213 | 57 | 5 | 3.0 | 7.0 | 0.00 | 0.18 | 0.06 | 85 | 1015.3 |
| 20260507114213 | 56 | 14 | 4.0 | 10.0 | 0.00 | 0.18 | 0.06 | 85 | 1015.3 |
| 20260507113212 | 57 | 36 | 5.0 | 9.0 | 0.00 | 0.18 | 0.06 | 84 | 1015.3 |
| 20260507112212 | 57 | 13 | 5.0 | 10.0 | 0.00 | 0.18 | 0.06 | 85 | 1015.3 |
| 20260507111212 | 57 | 40 | 3.0 | 9.0 | 0.00 | 0.18 | 0.06 | 85 | 1015.3 |
| 20260507110212 | 57 | 51 | 3.0 | 6.0 | 0.00 | 0.18 | 0.06 | 86 | 1015.3 |
| 20260507105213 | 57 | 5 | 0.0 | 3.0 | 0.00 | 0.18 | 0.06 | 86 | 1015.2 |
| 20260507104212 | 57 | 294 | 1.0 | 2.0 | 0.00 | 0.18 | 0.06 | 88 | 1015.3 |
| 20260507103213 | 57 | 260 | 2.0 | 4.0 | 0.00 | 0.18 | 0.06 | 89 | 1015.2 |
| 20260507102212 | 57 | 268 | 1.0 | 5.0 | 0.00 | 0.18 | 0.06 | 91 | 1015.3 |
| 20260507101212 | 56 | 205 | 2.0 | 7.0 | 0.00 | 0.18 | 0.06 | 92 | 1015.3 |
| 20260507100212 | 56 | 217 | 4.0 | 8.0 | 0.00 | 0.18 | 0.06 | 92 | 1015.3 |
| 20260507095213 | 56 | 215 | 2.0 | 5.0 | 0.00 | 0.18 | 0.06 | 93 | 1015.3 |
| 20260507094213 | 56 | 266 | 2.0 | 7.0 | 0.00 | 0.18 | 0.06 | 93 | 1015.3 |
| 20260507093213 | 55 | 179 | 3.0 | 6.0 | 0.00 | 0.18 | 0.06 | 94 | 1015.2 |
| 20260507092213 | 55 | 198 | 2.0 | 6.0 | 0.00 | 0.18 | 0.06 | 94 | 1015.2 |
| 20260507091213 | 55 | 199 | 3.0 | 7.0 | 0.00 | 0.18 | 0.06 | 95 | 1015.2 |
| 20260507090213 | 54 | 181 | 4.0 | 7.0 | 0.00 | 0.18 | 0.06 | 95 | 1015.1 |
| 20260507085213 | 54 | 218 | 3.0 | 7.0 | 0.00 | 0.18 | 0.06 | 95 | 1015.1 |
| 20260507084213 | 53 | 173 | 3.0 | 6.0 | 0.00 | 0.18 | 0.06 | 95 | 1014.9 |
| 20260507083212 | 53 | 171 | 3.0 | 6.0 | 0.00 | 0.18 | 0.06 | 95 | 1015.0 |
| 20260507082213 | 53 | 205 | 2.0 | 5.0 | 0.00 | 0.18 | 0.06 | 95 | 1015.0 |
| 20260507081212 | 53 | 186 | 3.0 | 4.0 | 0.00 | 0.18 | 0.06 | 95 | 1014.9 |
| 20260507080212 | 53 | 184 | 3.0 | 4.0 | 0.00 | 0.18 | 0.06 | 96 | 1014.9 |
| 20260507075212 | 53 | 171 | 2.0 | 5.0 | 0.00 | 0.18 | 0.06 | 95 | 1014.9 |
| 20260507074212 | 52 | 189 | 2.0 | 6.0 | 0.00 | 0.18 | 0.06 | 96 | 1014.8 |